Time;durP1;ratioP1;P1;durP2;ratioP2;P2;SDS_P1;SDS_P2;PMS_P1;PMS_P2;Temp;Humidity;BMP_temperature;BMP_pressure;BME280_temperature;BME280_humidity;BME280_pressure;Samples;Min_cycle;Max_cycle;Signal;HPM_P1;HPM_P2
2022/08/15 00:00:15;;;;;;;5.15;4.13;;;;;;;19.60;100.00;95898.38;5055866;28;20695;-53
2022/08/15 00:02:43;;;;;;;4.30;4.00;;;;;;;19.65;100.00;95889.69;5055558;28;20693;-52
2022/08/15 00:05:13;;;;;;;4.28;3.90;;;;;;;19.70;100.00;95897.91;5055163;28;20211;-51
2022/08/15 00:07:41;;;;;;;5.05;4.20;;;;;;;19.62;100.00;95903.56;5055767;28;20268;-51
2022/08/15 00:10:09;;;;;;;4.53;4.05;;;;;;;19.63;100.00;95903.31;5055661;28;20295;-51
2022/08/15 00:12:36;;;;;;;4.65;4.10;;;;;;;19.63;100.00;95902.50;5047259;28;20217;-51
2022/08/15 00:15:04;;;;;;;4.68;4.30;;;;;;;19.55;100.00;95911.66;5038108;28;20303;-51
2022/08/15 00:17:30;;;;;;;5.53;4.80;;;;;;;19.53;100.00;95899.47;5055395;28;20311;-52
2022/08/15 00:19:57;;;;;;;4.60;4.22;;;;;;;19.44;100.00;95898.09;5054459;28;20614;-52
2022/08/15 00:22:25;;;;;;;5.00;4.60;;;;;;;19.46;100.00;95899.53;5054952;28;20297;-51
2022/08/15 00:24:52;;;;;;;4.80;4.28;;;;;;;19.43;100.00;95899.94;5055057;28;20210;-51
2022/08/15 00:27:20;;;;;;;4.68;4.28;;;;;;;19.39;100.00;95906.75;5054711;28;20231;-52
2022/08/15 00:29:47;;;;;;;4.40;4.10;;;;;;;19.41;100.00;95894.00;5055532;28;20553;-52
2022/08/15 00:32:19;;;;;;;5.65;4.70;;;;;;;19.37;100.00;95898.13;5055187;28;20211;-53
2022/08/15 00:34:46;;;;;;;4.82;4.47;;;;;;;19.38;100.00;95897.06;5054280;28;20226;-54
2022/08/15 00:37:13;;;;;;;5.07;4.60;;;;;;;19.43;100.00;95889.22;5054571;28;20318;-52
2022/08/15 00:39:41;;;;;;;5.80;4.80;;;;;;;19.40;100.00;95884.28;5054637;28;20211;-53
2022/08/15 00:42:08;;;;;;;5.47;4.65;;;;;;;19.37;100.00;95880.16;5054444;28;20242;-52
2022/08/15 00:44:40;;;;;;;5.15;4.40;;;;;;;19.36;100.00;95886.56;5041699;28;20283;-53
2022/08/15 00:47:09;;;;;;;5.88;4.22;;;;;;;19.30;100.00;95886.59;5054594;28;20231;-52
2022/08/15 00:49:37;;;;;;;4.90;4.25;;;;;;;19.25;100.00;95892.59;5054333;28;20260;-53
2022/08/15 00:52:07;;;;;;;5.60;5.10;;;;;;;19.24;100.00;95895.47;5054380;28;20246;-54
2022/08/15 00:54:37;;;;;;;5.30;4.80;;;;;;;19.25;100.00;95897.97;5042350;28;20537;-53
2022/08/15 00:57:08;;;;;;;5.20;4.57;;;;;;;19.24;100.00;95893.63;5054735;28;20219;-52
2022/08/15 00:59:36;;;;;;;5.32;4.63;;;;;;;19.21;100.00;95896.75;5054943;28;20265;-52
2022/08/15 01:02:07;;;;;;;5.28;4.65;;;;;;;19.17;100.00;95897.38;5061719;28;20230;-51
2022/08/15 01:04:35;;;;;;;5.05;4.65;;;;;;;19.23;100.00;95896.53;5072994;28;20191;-52
2022/08/15 01:07:03;;;;;;;4.72;4.32;;;;;;;19.31;100.00;95898.94;5068035;28;20211;-52
2022/08/15 01:09:29;;;;;;;4.80;4.30;;;;;;;19.22;100.00;95887.69;5058413;28;20257;-52
2022/08/15 01:12:01;;;;;;;5.15;4.75;;;;;;;19.22;100.00;95895.72;5056169;28;20583;-52
2022/08/15 01:14:31;;;;;;;4.82;4.32;;;;;;;19.15;100.00;95886.06;5045275;28;20208;-52
2022/08/15 01:16:57;;;;;;;4.55;4.15;;;;;;;19.08;100.00;95887.97;5052892;28;20237;-52
2022/08/15 01:19:28;;;;;;;4.90;4.50;;;;;;;19.03;100.00;95890.44;5054535;28;20230;-53
2022/08/15 01:22:16;;;;;;;5.32;4.82;;;;;;;18.93;100.00;95890.09;5054230;28;20720;-51
2022/08/15 01:24:56;;;;;;;5.30;4.80;;;;;;;18.93;100.00;95884.72;5054533;28;20211;-52
2022/08/15 01:27:25;;;;;;;5.15;4.75;;;;;;;18.94;100.00;95889.06;5054605;28;20235;-51
2022/08/15 01:29:52;;;;;;;5.43;4.90;;;;;;;18.92;100.00;95881.22;5051074;28;20611;-51
2022/08/15 01:32:19;;;;;;;5.03;4.63;;;;;;;18.96;100.00;95878.94;5048234;28;20643;-51
2022/08/15 01:34:46;;;;;;;5.22;4.70;;;;;;;18.99;100.00;95883.91;5058018;28;20203;-51
2022/08/15 01:37:13;;;;;;;5.32;4.70;;;;;;;18.98;100.00;95876.88;5058094;28;20241;-50
2022/08/15 01:39:46;;;;;;;5.30;4.80;;;;;;;18.94;100.00;95886.38;5058266;28;20286;-50
2022/08/15 01:42:18;;;;;;;5.50;5.10;;;;;;;18.94;100.00;95881.03;5058390;28;20628;-52
2022/08/15 01:44:46;;;;;;;5.45;4.95;;;;;;;18.92;100.00;95877.75;5057963;28;20195;-51
2022/08/15 01:47:18;;;;;;;5.20;4.72;;;;;;;18.86;100.00;95882.91;5058384;28;20262;-52
2022/08/15 01:49:52;;;;;;;4.95;4.65;;;;;;;18.83;100.00;95872.63;5058222;28;20230;-50
2022/08/15 01:52:21;;;;;;;5.43;4.93;;;;;;;18.76;100.00;95879.88;5058137;28;20285;-53
2022/08/15 01:54:48;;;;;;;4.97;4.57;;;;;;;18.77;100.00;95878.84;5057764;28;20233;-51
2022/08/15 01:57:16;;;;;;;5.15;4.75;;;;;;;18.72;100.00;95877.81;5057482;28;20305;-51
2022/08/15 01:59:42;;;;;;;6.78;4.90;;;;;;;18.66;100.00;95884.03;5058223;28;20254;-52
2022/08/15 02:02:12;;;;;;;5.18;4.78;;;;;;;18.64;100.00;95880.72;5055335;28;20235;-51
2022/08/15 02:04:42;;;;;;;5.40;5.00;;;;;;;18.60;100.00;95880.31;5053465;28;20245;-54
2022/08/15 02:07:12;;;;;;;4.72;4.30;;;;;;;18.64;100.00;95886.06;5057237;28;20214;-51
2022/08/15 02:09:41;;;;;;;5.22;4.72;;;;;;;18.68;100.00;95881.94;5057751;28;20235;-51
2022/08/15 02:12:08;;;;;;;5.30;4.90;;;;;;;18.64;100.00;95876.19;5058147;28;20203;-52
2022/08/15 02:14:41;;;;;;;5.22;4.78;;;;;;;18.62;100.00;95878.28;5057745;28;20506;-52
2022/08/15 02:17:08;;;;;;;5.10;4.70;;;;;;;18.54;100.00;95875.81;5057426;28;20230;-51
2022/08/15 02:19:35;;;;;;;5.30;4.90;;;;;;;18.59;100.00;95881.38;5057195;28;20210;-51
2022/08/15 02:22:04;;;;;;;5.10;4.70;;;;;;;18.58;100.00;95889.59;5057926;28;20211;-51
2022/08/15 02:24:31;;;;;;;4.53;4.22;;;;;;;18.56;100.00;95892.50;5057425;28;20214;-53
2022/08/15 02:26:57;;;;;;;6.60;4.95;;;;;;;18.49;100.00;95888.16;5056954;28;20260;-51
2022/08/15 02:29:26;;;;;;;5.70;4.80;;;;;;;18.49;100.00;95899.72;5057803;28;20242;-51
2022/08/15 02:31:56;;;;;;;5.78;5.22;;;;;;;18.44;100.00;95896.00;5057311;28;20227;-51
2022/08/15 02:34:23;;;;;;;5.35;4.95;;;;;;;18.53;100.00;95895.59;5057568;28;20295;-51
2022/08/15 02:36:50;;;;;;;5.18;4.78;;;;;;;18.47;100.00;95891.03;5056079;28;20211;-51
2022/08/15 02:39:18;;;;;;;5.20;4.75;;;;;;;18.45;100.00;95882.41;5057132;28;20526;-52
2022/08/15 02:41:50;;;;;;;5.25;4.78;;;;;;;18.43;100.00;95884.47;5056908;28;20268;-52
2022/08/15 02:44:17;;;;;;;4.97;4.68;;;;;;;18.42;100.00;95889.00;5056967;28;20239;-53
2022/08/15 02:46:44;;;;;;;6.57;5.43;;;;;;;18.43;100.00;95879.09;5056778;28;20270;-52
2022/08/15 02:49:12;;;;;;;5.47;5.03;;;;;;;18.38;100.00;95882.44;5056839;28;20230;-51
2022/08/15 02:51:39;;;;;;;5.20;4.80;;;;;;;18.46;100.00;95884.03;5057433;28;20288;-51
2022/08/15 02:54:07;;;;;;;5.05;4.57;;;;;;;18.36;100.00;95889.00;5057093;28;20203;-53
2022/08/15 02:56:35;;;;;;;5.28;4.82;;;;;;;18.29;100.00;95882.84;5056916;28;20277;-52
2022/08/15 02:59:02;;;;;;;5.53;5.13;;;;;;;18.32;100.00;95887.78;5054156;28;20254;-50
2022/08/15 03:01:29;;;;;;;4.72;4.43;;;;;;;18.36;100.00;95881.81;5048017;28;20203;-51
2022/08/15 03:03:57;;;;;;;5.20;4.70;;;;;;;18.39;100.00;95883.22;5057746;28;20638;-52
2022/08/15 03:06:27;;;;;;;5.15;4.82;;;;;;;18.38;100.00;95881.59;5057182;28;20268;-51
2022/08/15 03:08:58;;;;;;;4.95;4.55;;;;;;;18.40;100.00;95869.66;5058602;28;20203;-51
2022/08/15 03:11:25;;;;;;;4.82;4.38;;;;;;;18.43;100.00;95860.38;5073312;28;20202;-52
2022/08/15 03:13:51;;;;;;;4.57;4.28;;;;;;;18.45;100.00;95860.16;5063848;28;20204;-52
2022/08/15 03:16:18;;;;;;;4.80;4.40;;;;;;;18.38;100.00;95860.19;5054998;28;20211;-51
2022/08/15 03:18:45;;;;;;;5.07;4.00;;;;;;;18.43;100.00;95852.34;5057100;28;20318;-52
2022/08/15 03:21:13;;;;;;;5.90;4.68;;;;;;;18.38;100.00;95858.34;5056936;28;20210;-50
2022/08/15 03:23:48;;;;;;;5.25;4.47;;;;;;;18.33;100.00;95841.25;5056503;28;20276;-53
2022/08/15 03:26:16;;;;;;;5.35;4.30;;;;;;;18.13;100.00;95848.53;5056535;28;20217;-53
2022/08/15 03:28:42;;;;;;;4.50;4.20;;;;;;;18.05;100.00;95848.72;5056745;28;20309;-52
2022/08/15 03:31:10;;;;;;;4.72;4.43;;;;;;;18.08;100.00;95838.44;5056140;28;20261;-50
2022/08/15 03:33:38;;;;;;;4.70;4.30;;;;;;;17.92;100.00;95828.97;5055971;28;20241;-53
2022/08/15 03:36:06;;;;;;;5.90;5.38;;;;;;;17.93;100.00;95832.47;5053741;28;20219;-51
2022/08/15 03:38:33;;;;;;;7.95;7.15;;;;;;;17.94;100.00;95841.34;5044460;28;20258;-52
2022/08/15 03:41:01;;;;;;;5.70;5.28;;;;;;;17.83;100.00;95840.94;5055959;28;20620;-50
2022/08/15 03:43:29;;;;;;;4.45;4.05;;;;;;;17.85;100.00;95846.88;5056132;28;20242;-51
2022/08/15 03:45:58;;;;;;;4.45;4.15;;;;;;;17.71;100.00;95855.16;5055671;28;20286;-51
2022/08/15 03:48:29;;;;;;;5.22;4.35;;;;;;;17.64;100.00;95857.81;5055500;28;20231;-51
2022/08/15 03:50:57;;;;;;;4.80;4.18;;;;;;;17.60;100.00;95861.94;5056298;28;20207;-51
2022/08/15 03:53:24;;;;;;;4.47;4.15;;;;;;;17.66;100.00;95861.13;5055455;28;20234;-52
2022/08/15 03:55:50;;;;;;;4.90;4.40;;;;;;;17.71;100.00;95872.00;5054413;28;20250;-51
2022/08/15 03:58:18;;;;;;;5.00;4.60;;;;;;;17.53;100.00;95870.94;5055700;28;20254;-51
2022/08/15 04:00:48;;;;;;;5.83;4.27;;;;;;;17.44;100.00;95875.66;5054999;28;20199;-52
2022/08/15 04:03:17;;;;;;;5.00;4.55;;;;;;;17.42;100.00;95880.41;5056042;28;20210;-51
2022/08/15 04:05:49;;;;;;;6.63;4.78;;;;;;;17.40;100.00;95869.91;5055309;28;20246;-51
2022/08/15 04:08:17;;;;;;;5.20;4.70;;;;;;;17.36;100.00;95871.34;5055485;28;20265;-51
2022/08/15 04:10:46;;;;;;;5.00;4.60;;;;;;;17.36;100.00;95882.03;5042070;28;20207;-51
2022/08/15 04:13:13;;;;;;;4.70;4.32;;;;;;;17.34;100.00;95888.59;5055584;28;20207;-51
2022/08/15 04:15:42;;;;;;;5.20;4.70;;;;;;;17.31;100.00;95889.84;5041269;28;20587;-53
2022/08/15 04:18:10;;;;;;;5.22;4.65;;;;;;;17.42;100.00;95889.25;5054480;28;20599;-50
2022/08/15 04:20:37;;;;;;;4.82;4.40;;;;;;;17.25;100.00;95893.31;5055312;28;20244;-51
2022/08/15 04:23:05;;;;;;;4.65;4.30;;;;;;;17.23;100.00;95894.53;5040775;28;20636;-50
2022/08/15 04:25:34;;;;;;;4.50;4.10;;;;;;;17.26;100.00;95896.81;5055017;28;20235;-52
2022/08/15 04:28:03;;;;;;;5.13;4.63;;;;;;;17.21;100.00;95902.78;5054981;28;20269;-52
2022/08/15 04:30:32;;;;;;;4.75;4.35;;;;;;;17.18;100.00;95905.03;5055017;28;20531;-51
2022/08/15 04:33:09;;;;;;;5.03;4.53;;;;;;;17.22;100.00;95907.06;5055513;28;20219;-51
2022/08/15 04:35:36;;;;;;;4.67;4.27;;;;;;;17.20;100.00;95903.78;5055321;28;20245;-50
2022/08/15 04:38:03;;;;;;;4.97;4.50;;;;;;;17.18;100.00;95911.16;5054594;28;20240;-51
2022/08/15 04:40:30;;;;;;;4.80;4.50;;;;;;;17.20;100.00;95908.31;5054927;28;20290;-50
2022/08/15 04:42:58;;;;;;;4.13;3.83;;;;;;;17.21;100.00;95915.31;5054976;28;20249;-52
2022/08/15 04:45:25;;;;;;;4.60;4.30;;;;;;;17.19;100.00;95912.81;5054399;28;20290;-50
2022/08/15 04:47:52;;;;;;;4.80;4.40;;;;;;;17.17;100.00;95912.22;5053731;28;20269;-52
2022/08/15 04:50:20;;;;;;;4.97;4.43;;;;;;;17.16;100.00;95909.72;5054390;28;20210;-50
2022/08/15 04:52:49;;;;;;;4.95;4.28;;;;;;;17.17;100.00;95911.38;5055000;28;20302;-52
2022/08/15 04:55:16;;;;;;;4.97;4.47;;;;;;;17.23;100.00;95907.91;5054241;28;20199;-52
2022/08/15 04:57:43;;;;;;;6.50;4.53;;;;;;;17.23;100.00;95907.91;5054494;28;20252;-51
2022/08/15 05:00:12;;;;;;;4.73;4.33;;;;;;;17.29;100.00;95917.78;5054603;28;20203;-52
2022/08/15 05:02:39;;;;;;;5.47;4.93;;;;;;;17.34;100.00;95920.69;5041577;28;20628;-52
2022/08/15 05:05:08;;;;;;;5.40;5.00;;;;;;;17.52;100.00;95915.56;5053805;28;20241;-52
2022/08/15 05:07:37;;;;;;;5.27;4.77;;;;;;;17.55;100.00;95917.84;5042702;28;20211;-51
2022/08/15 05:10:08;;;;;;;5.63;4.63;;;;;;;17.58;100.00;95914.78;5054728;28;20300;-50
2022/08/15 05:12:36;;;;;;;4.90;4.50;;;;;;;17.73;100.00;95919.94;5054596;28;20211;-51
2022/08/15 05:15:04;;;;;;;5.20;4.80;;;;;;;17.90;100.00;95913.97;5053730;28;20215;-53
2022/08/15 05:17:32;;;;;;;5.25;4.78;;;;;;;17.90;100.00;95919.31;5048179;28;20246;-51
2022/08/15 05:19:59;;;;;;;4.78;4.40;;;;;;;18.04;100.00;95919.31;5075348;28;20231;-52
2022/08/15 05:22:25;;;;;;;4.63;4.32;;;;;;;18.17;100.00;95922.00;5070050;28;20295;-52
2022/08/15 05:24:57;;;;;;;5.00;4.55;;;;;;;18.17;100.00;95924.69;5063529;28;20572;-51
2022/08/15 05:27:24;;;;;;;6.93;5.03;;;;;;;18.30;100.00;95927.31;5054250;28;20258;-51
2022/08/15 05:29:51;;;;;;;5.43;4.93;;;;;;;18.38;100.00;95921.75;5051116;28;20208;-52
2022/08/15 05:32:18;;;;;;;4.80;4.35;;;;;;;18.54;100.00;95918.66;5045396;28;20203;-51
2022/08/15 05:34:45;;;;;;;6.78;5.00;;;;;;;18.75;100.00;95921.06;5054076;28;20654;-53
2022/08/15 05:37:12;;;;;;;5.70;5.20;;;;;;;18.84;100.00;95919.81;5054482;28;20299;-51
2022/08/15 05:39:40;;;;;;;6.00;5.40;;;;;;;19.10;100.00;95912.66;5054630;28;20227;-51
2022/08/15 05:42:17;;;;;;;6.20;5.20;;;;;;;19.12;100.00;95921.34;5054318;28;20203;-51
2022/08/15 05:44:50;;;;;;;5.80;5.30;;;;;;;19.40;100.00;95908.41;5054149;28;20286;-52
2022/08/15 05:47:31;;;;;;;5.97;4.95;;;;;;;19.48;100.00;95908.19;5054157;28;20247;-51
2022/08/15 05:50:06;;;;;;;5.07;4.60;;;;;;;19.79;100.00;95910.03;5054545;28;20275;-50
2022/08/15 05:52:39;;;;;;;5.43;5.03;;;;;;;20.01;100.00;95897.88;5055109;28;20336;-51
2022/08/15 05:55:16;;;;;;;6.78;4.97;;;;;;;20.27;100.00;95900.34;5054150;28;20588;-50
2022/08/15 05:57:56;;;;;;;5.35;4.95;;;;;;;20.38;100.00;95895.28;5053396;28;20535;-51
2022/08/15 06:00:26;;;;;;;5.28;4.70;;;;;;;20.52;100.00;95891.41;5054691;28;20294;-52
2022/08/15 06:02:57;;;;;;;5.40;4.90;;;;;;;20.88;100.00;95893.28;5054275;28;20251;-50
2022/08/15 06:05:27;;;;;;;5.25;4.57;;;;;;;21.13;97.75;95896.72;5054888;28;20214;-50
2022/08/15 06:07:55;;;;;;;4.65;3.95;;;;;;;21.59;95.84;95896.06;5053952;28;20286;-52
2022/08/15 06:10:28;;;;;;;4.38;3.97;;;;;;;21.77;92.62;95896.84;5055166;28;20580;-50
2022/08/15 06:13:01;;;;;;;4.22;3.80;;;;;;;22.16;88.37;95898.09;5045526;28;20702;-50
2022/08/15 06:15:35;;;;;;;3.83;3.63;;;;;;;22.21;83.58;95900.09;5050350;28;20279;-50
2022/08/15 06:18:04;;;;;;;4.93;3.92;;;;;;;22.41;82.63;95886.25;5056739;28;20608;-50
2022/08/15 06:20:38;;;;;;;3.80;3.50;;;;;;;22.67;86.82;95894.69;5058642;28;20294;-50
2022/08/15 06:23:10;;;;;;;4.03;3.47;;;;;;;23.10;79.18;95901.50;5057408;28;20282;-50
2022/08/15 06:25:43;;;;;;;4.10;3.72;;;;;;;23.05;79.45;95904.13;5057034;28;20282;-49
2022/08/15 06:28:21;;;;;;;3.95;3.55;;;;;;;23.56;77.46;95905.97;5055406;28;20210;-50
2022/08/15 06:30:50;;;;;;;4.00;3.70;;;;;;;23.65;73.54;95905.34;5051961;28;20285;-50
2022/08/15 06:33:28;;;;;;;3.97;3.67;;;;;;;23.90;73.07;95901.44;5056519;28;20290;-50
2022/08/15 06:36:00;;;;;;;4.32;3.47;;;;;;;23.83;70.21;95896.19;5057399;28;20203;-49
2022/08/15 06:38:34;;;;;;;3.55;3.25;;;;;;;23.90;71.54;95898.72;5057023;28;20265;-51
2022/08/15 06:41:06;;;;;;;3.80;3.50;;;;;;;24.10;73.79;95907.16;5057285;28;20256;-49
2022/08/15 06:43:34;;;;;;;3.83;3.53;;;;;;;24.14;70.81;95895.66;5056448;28;20568;-50
2022/08/15 06:46:03;;;;;;;3.90;3.20;;;;;;;24.43;71.43;95907.19;5055780;28;20218;-50
2022/08/15 06:48:32;;;;;;;3.22;3.03;;;;;;;24.68;68.14;95899.47;5057439;28;20663;-50
2022/08/15 06:51:00;;;;;;;5.10;3.20;;;;;;;24.86;66.24;95895.66;5058477;28;20246;-50
2022/08/15 06:53:31;;;;;;;3.28;2.88;;;;;;;24.83;67.81;95895.31;5060383;28;20207;-51
2022/08/15 06:56:00;;;;;;;3.53;3.33;;;;;;;24.72;69.45;95888.97;5066805;28;20210;-52
2022/08/15 06:58:38;;;;;;;3.90;3.35;;;;;;;24.74;68.56;95890.34;5076713;28;22123;-52
2022/08/15 07:01:19;;;;;;;3.47;3.17;;;;;;;25.00;67.86;95888.00;5070344;28;20183;-51
2022/08/15 07:03:52;;;;;;;3.60;3.10;;;;;;;25.20;64.73;95890.94;5079474;28;20206;-52
2022/08/15 07:06:24;;;;;;;2.92;2.78;;;;;;;25.08;63.85;95880.25;5078601;28;20229;-51
2022/08/15 07:08:55;;;;;;;2.70;2.50;;;;;;;25.38;61.31;95871.66;5076331;28;20207;-58
2022/08/15 07:11:27;;;;;;;2.70;2.40;;;;;;;25.56;58.73;95882.19;5077732;28;20252;-52
2022/08/15 07:14:04;;;;;;;2.05;1.95;;;;;;;25.31;64.24;95881.88;5074420;28;20271;-53
2022/08/15 07:16:39;;;;;;;2.92;2.38;;;;;;;25.58;61.00;95877.31;5076857;28;20210;-52
2022/08/15 07:19:08;;;;;;;3.30;2.10;;;;;;;25.85;58.20;95876.50;5071009;28;20211;-51
2022/08/15 07:21:37;;;;;;;1.92;1.77;;;;;;;25.88;53.94;95875.97;5056055;28;20207;-52
2022/08/15 07:24:07;;;;;;;2.60;2.13;;;;;;;25.93;58.74;95867.91;5047288;28;20261;-51
2022/08/15 07:26:42;;;;;;;1.90;1.80;;;;;;;26.01;55.12;95868.22;5056010;28;20244;-53
2022/08/15 07:29:15;;;;;;;2.00;1.80;;;;;;;26.17;54.12;95870.03;5063711;28;20198;-52
2022/08/15 07:31:43;;;;;;;1.90;1.80;;;;;;;26.33;54.46;95862.81;5061055;28;20219;-52
2022/08/15 07:34:20;;;;;;;2.33;2.08;;;;;;;26.26;56.22;95870.34;5061931;28;20659;-52
2022/08/15 07:36:56;;;;;;;2.70;1.73;;;;;;;26.27;52.96;95863.88;5057462;28;20257;-50
2022/08/15 07:39:25;;;;;;;2.10;2.00;;;;;;;26.52;52.85;95860.50;5056604;28;20237;-50
2022/08/15 07:41:53;;;;;;;1.83;1.70;;;;;;;26.17;53.93;95866.47;5056399;28;20230;-51
2022/08/15 07:44:24;;;;;;;2.70;2.47;;;;;;;26.38;52.68;95860.16;5055589;28;20585;-52
2022/08/15 07:46:56;;;;;;;2.40;2.20;;;;;;;26.27;54.72;95863.88;5054764;28;20274;-52
2022/08/15 07:49:25;;;;;;;4.35;1.90;;;;;;;26.12;53.45;95861.81;5059331;28;20357;-52
2022/08/15 07:52:07;;;;;;;3.65;2.22;;;;;;;26.65;52.57;95854.59;5056159;28;20635;-52
2022/08/15 07:54:46;;;;;;;2.17;2.08;;;;;;;26.73;54.18;95854.94;5054533;28;20207;-52
2022/08/15 07:57:20;;;;;;;2.67;2.20;;;;;;;26.67;53.18;95850.56;5055362;28;20294;-52
2022/08/15 08:00:08;;;;;;;2.20;2.10;;;;;;;26.93;55.63;95862.38;5053559;28;20241;-51
2022/08/15 08:02:41;;;;;;;2.22;2.03;;;;;;;26.95;53.75;95854.00;5055468;28;20591;-52
2022/08/15 08:05:08;;;;;;;3.17;2.10;;;;;;;27.16;55.71;95852.97;5055526;28;20207;-52
2022/08/15 08:07:38;;;;;;;2.15;1.95;;;;;;;27.19;51.09;95847.03;5055314;28;20298;-52
2022/08/15 08:10:13;;;;;;;2.35;2.15;;;;;;;26.96;51.58;95842.06;5055063;28;20238;-51
2022/08/15 08:12:48;;;;;;;2.58;2.20;;;;;;;26.66;55.38;95837.25;5055499;28;20286;-52
2022/08/15 08:15:21;;;;;;;3.28;2.38;;;;;;;26.93;52.55;95834.41;5053892;28;20195;-50
2022/08/15 08:17:54;;;;;;;2.08;1.98;;;;;;;27.01;54.49;95842.06;5046547;28;20735;-50
2022/08/15 08:20:24;;;;;;;2.50;2.00;;;;;;;26.80;54.66;95837.59;5054708;28;20221;-52
2022/08/15 08:22:55;;;;;;;2.33;2.10;;;;;;;26.90;51.97;95832.25;5055411;28;20593;-50
2022/08/15 08:25:28;;;;;;;2.70;2.20;;;;;;;26.76;56.30;95836.50;5052545;28;20620;-50
2022/08/15 08:28:06;;;;;;;2.60;2.40;;;;;;;27.01;54.06;95832.03;5055090;28;20296;-50
2022/08/15 08:30:37;;;;;;;3.30;2.60;;;;;;;27.25;55.67;95835.09;5048436;28;20268;-51
2022/08/15 08:33:12;;;;;;;2.50;2.30;;;;;;;27.32;51.33;95830.22;5042438;28;20290;-52
2022/08/15 08:35:43;;;;;;;4.97;2.65;;;;;;;27.43;50.94;95826.44;5055170;28;20206;-52
2022/08/15 08:38:21;;;;;;;2.50;2.33;;;;;;;27.20;51.85;95819.63;5054827;28;20203;-50
2022/08/15 08:43:45;;;;;;;2.72;2.08;;;;;;;27.67;52.16;95827.59;5054180;28;20282;-51
2022/08/15 08:46:21;;;;;;;3.45;2.20;;;;;;;27.72;50.90;95828.69;5053904;28;20201;-51
2022/08/15 08:49:01;;;;;;;2.58;2.38;;;;;;;27.79;52.39;95837.38;5054116;28;20643;-51
2022/08/15 08:51:35;;;;;;;3.08;2.40;;;;;;;27.87;48.79;95834.97;5054782;28;20585;-52
2022/08/15 08:54:06;;;;;;;2.90;2.30;;;;;;;27.95;49.34;95830.88;5054256;28;20237;-51
2022/08/15 08:56:36;;;;;;;2.40;2.20;;;;;;;28.19;49.05;95826.56;5051147;28;20199;-51
2022/08/15 08:59:10;;;;;;;2.95;2.38;;;;;;;28.20;48.86;95822.72;5054199;28;20279;-50
2022/08/15 09:01:39;;;;;;;2.15;2.05;;;;;;;28.63;46.58;95824.81;5054405;28;20199;-51
2022/08/15 09:04:08;;;;;;;2.92;2.63;;;;;;;28.21;47.96;95812.66;5053635;28;20286;-50
2022/08/15 09:06:39;;;;;;;3.20;2.42;;;;;;;27.95;49.58;95809.94;5054305;28;20264;-52
2022/08/15 09:09:11;;;;;;;3.08;2.60;;;;;;;28.20;50.11;95822.72;5053412;28;20285;-51
2022/08/15 09:11:40;;;;;;;2.88;2.67;;;;;;;27.92;50.18;95815.09;5048243;28;20218;-51
2022/08/15 09:14:14;;;;;;;4.75;2.80;;;;;;;27.95;50.14;95820.03;5051236;28;20275;-52
2022/08/15 09:16:43;;;;;;;2.90;2.70;;;;;;;28.09;50.68;95821.13;5053197;28;20529;-52
2022/08/15 09:19:14;;;;;;;2.72;2.53;;;;;;;28.05;52.13;95820.00;5053339;28;20533;-51
2022/08/15 09:21:42;;;;;;;3.33;2.97;;;;;;;27.83;52.44;95817.56;5051796;28;20642;-52
2022/08/15 09:24:09;;;;;;;3.22;2.92;;;;;;;27.86;50.51;95816.19;5053811;28;20207;-52
2022/08/15 09:26:40;;;;;;;2.40;2.30;;;;;;;28.03;51.63;95820.28;5053218;28;20226;-53
2022/08/15 09:29:10;;;;;;;6.22;2.78;;;;;;;27.68;50.93;95814.81;5054070;28;20257;-51
2022/08/15 09:31:39;;;;;;;3.95;2.75;;;;;;;27.98;53.08;95819.47;5044205;28;20203;-55
2022/08/15 09:34:34;;;;;;;4.53;3.00;;;;;;;28.48;51.96;95816.72;5053694;28;20301;-51
2022/08/15 09:37:21;;;;;;;5.50;2.83;;;;;;;28.71;50.96;95815.31;5051894;28;20230;-52
2022/08/15 09:40:24;;;;;;;2.97;2.42;;;;;;;28.70;49.14;95804.72;5054965;28;20298;-52
2022/08/15 09:43:05;;;;;;;2.47;2.33;;;;;;;29.04;48.18;95806.50;5054641;28;20203;-52
2022/08/15 09:45:44;;;;;;;2.78;2.58;;;;;;;29.44;48.47;95789.13;5053565;28;20195;-54
2022/08/15 09:48:33;;;;;;;4.43;2.83;;;;;;;29.25;45.66;95782.69;5053464;28;20763;-50
2022/08/15 09:51:22;;;;;;;3.95;2.72;;;;;;;29.29;45.29;95781.06;5053807;28;20233;-52
2022/08/15 09:54:05;;;;;;;3.53;2.50;;;;;;;28.98;46.52;95776.84;5052353;28;20266;-54
2022/08/15 09:56:34;;;;;;;2.67;2.47;;;;;;;28.84;46.16;95786.72;5047974;28;20555;-55
2022/08/15 09:59:10;;;;;;;3.10;2.88;;;;;;;29.16;46.96;95781.63;5056487;28;20624;-53
2022/08/15 10:01:48;;;;;;;5.72;3.00;;;;;;;29.42;46.10;95783.16;5056995;28;20214;-54
2022/08/15 10:04:18;;;;;;;3.33;2.50;;;;;;;29.26;46.60;95781.63;5056332;28;20289;-54
2022/08/15 10:07:13;;;;;;;3.95;2.88;;;;;;;29.30;46.13;95781.88;5057055;28;20199;-53
2022/08/15 10:09:43;;;;;;;2.92;2.50;;;;;;;29.56;46.63;95778.69;5056743;28;20231;-51
2022/08/15 10:12:28;;;;;;;2.30;2.10;;;;;;;29.70;42.04;95770.69;5056826;28;20620;-53
2022/08/15 10:15:25;;;;;;;3.17;2.25;;;;;;;29.77;44.77;95773.06;5056853;28;20585;-53
2022/08/15 10:17:52;;;;;;;2.28;1.98;;;;;;;29.58;42.98;95767.53;5057061;28;20218;-54
2022/08/15 10:20:47;;;;;;;4.40;2.10;;;;;;;29.77;41.32;95768.44;5056694;28;20223;-52
2022/08/15 10:23:16;;;;;;;3.00;2.30;;;;;;;29.71;42.06;95761.41;5056669;28;20294;-53
2022/08/15 10:25:45;;;;;;;2.50;2.30;;;;;;;29.58;42.28;95759.34;5056526;28;20552;-52
2022/08/15 10:28:24;;;;;;;2.42;2.22;;;;;;;29.75;42.06;95754.31;5056277;28;20261;-52
2022/08/15 10:31:24;;;;;;;3.85;2.45;;;;;;;29.71;41.98;95752.41;5057091;28;20203;-52
2022/08/15 10:33:52;;;;;;;3.40;2.25;;;;;;;29.70;40.38;95748.06;5047783;28;20215;-55
2022/08/15 10:36:26;;;;;;;2.40;2.20;;;;;;;29.66;41.68;95747.81;5056440;28;20268;-52
2022/08/15 10:39:07;;;;;;;2.67;2.22;;;;;;;29.63;41.84;95743.75;5056565;28;20257;-51
2022/08/15 10:41:39;;;;;;;2.67;2.33;;;;;;;29.77;41.87;95740.38;5057030;28;20302;-52
2022/08/15 10:44:11;;;;;;;2.45;2.13;;;;;;;30.03;41.09;95725.44;5056907;28;20199;-51
2022/08/15 10:46:52;;;;;;;2.50;2.03;;;;;;;29.88;38.97;95725.59;5055874;28;20312;-54
2022/08/15 10:49:25;;;;;;;2.53;2.33;;;;;;;29.41;38.15;95721.59;5056423;28;20579;-53
2022/08/15 10:52:22;;;;;;;2.20;2.10;;;;;;;29.37;41.02;95717.00;5056282;28;20290;-52
2022/08/15 10:55:22;;;;;;;2.15;2.05;;;;;;;29.02;42.20;95713.38;5049022;28;20523;-53
2022/08/15 10:57:51;;;;;;;2.38;2.17;;;;;;;29.02;43.53;95713.38;5043572;28;20297;-54
2022/08/15 11:00:32;;;;;;;4.72;2.53;;;;;;;29.37;42.57;95712.34;5056536;28;20261;-53
2022/08/15 11:03:02;;;;;;;2.83;2.60;;;;;;;29.59;42.87;95707.28;5056615;28;20214;-53
2022/08/15 11:05:29;;;;;;;2.53;2.30;;;;;;;29.84;40.91;95694.50;5056965;28;20227;-52
2022/08/15 11:07:56;;;;;;;2.60;2.40;;;;;;;29.91;42.12;95700.47;5056439;28;20217;-54
2022/08/15 11:10:28;;;;;;;2.50;2.30;;;;;;;30.14;40.73;95707.88;5055620;28;20294;-53
2022/08/15 11:12:59;;;;;;;4.18;2.88;;;;;;;29.77;39.66;95704.94;5056341;28;20231;-53
2022/08/15 11:15:31;;;;;;;3.20;2.47;;;;;;;29.40;41.15;95700.91;5055858;28;20240;-53
2022/08/15 11:18:03;;;;;;;3.67;2.25;;;;;;;28.80;43.05;95695.84;5056123;28;20207;-53
2022/08/15 11:20:37;;;;;;;3.85;2.42;;;;;;;28.48;42.61;95699.78;5056260;28;20226;-53
2022/08/15 11:23:04;;;;;;;3.63;2.40;;;;;;;28.46;43.62;95695.69;5056006;28;20194;-52
2022/08/15 11:25:34;;;;;;;2.72;2.53;;;;;;;28.45;45.17;95692.13;5055139;28;20292;-52
2022/08/15 11:28:04;;;;;;;3.10;2.78;;;;;;;28.57;41.55;95687.19;5055240;28;20297;-51
2022/08/15 11:30:33;;;;;;;3.00;2.40;;;;;;;28.53;42.76;95686.13;5056015;28;20282;-51
2022/08/15 11:33:18;;;;;;;2.40;2.20;;;;;;;28.84;41.26;95691.47;5055066;28;20294;-51
2022/08/15 11:35:45;;;;;;;2.40;2.30;;;;;;;28.89;40.82;95677.81;5051601;28;20550;-52
2022/08/15 11:38:15;;;;;;;3.05;2.47;;;;;;;29.11;40.91;95676.31;5054285;28;20207;-54
2022/08/15 11:40:43;;;;;;;2.35;2.20;;;;;;;29.32;39.80;95677.00;5055497;28;20285;-54
2022/08/15 11:43:15;;;;;;;2.70;2.50;;;;;;;29.65;39.23;95675.38;5058850;28;20210;-52
2022/08/15 11:45:46;;;;;;;3.20;2.90;;;;;;;29.71;40.15;95667.94;5060149;28;21084;-54
2022/08/15 11:48:15;;;;;;;2.70;2.50;;;;;;;29.84;40.09;95676.28;5049193;28;20242;-54
2022/08/15 11:50:56;;;;;;;4.63;2.55;;;;;;;29.52;39.97;95671.38;5057668;28;20213;-54